Time;durP1;ratioP1;P1;durP2;ratioP2;P2;SDS_P1;SDS_P2;PMS_P1;PMS_P2;Temp;Humidity;BMP_temperature;BMP_pressure;BME280_temperature;BME280_humidity;BME280_pressure;Samples;Min_cycle;Max_cycle;Signal;HPM_P1;HPM_P2
2022/07/05 00:01:01;;;;;;;4.15;3.20;;;;;;;;;;5049520;28;20424;-75
2022/07/05 00:03:29;;;;;;;4.40;3.30;;;;;;;;;;5049458;28;20923;-73
2022/07/05 00:05:57;;;;;;;4.38;3.03;;;;;;;;;;5048451;28;20433;-74
2022/07/05 00:08:25;;;;;;;3.77;3.20;;;;;;;;;;5048996;28;20427;-74
2022/07/05 00:10:52;;;;;;;3.20;3.00;;;;;;;;;;5049058;28;20422;-74
2022/07/05 00:13:19;;;;;;;4.78;3.30;;;;;;;;;;5049654;28;20413;-73
2022/07/05 00:15:46;;;;;;;3.38;3.08;;;;;;;;;;5048262;28;20974;-76
2022/07/05 00:18:13;;;;;;;4.53;3.25;;;;;;;;;;5049204;28;20413;-75
2022/07/05 00:20:41;;;;;;;3.70;3.40;;;;;;;;;;5048801;28;20409;-73
2022/07/05 00:23:09;;;;;;;3.65;3.25;;;;;;;;;;5051119;28;20443;-74
2022/07/05 00:25:36;;;;;;;3.40;3.10;;;;;;;;;;5047774;28;20429;-74
2022/07/05 00:28:04;;;;;;;3.70;3.30;;;;;;;;;;5048738;28;20433;-74
2022/07/05 00:30:31;;;;;;;3.93;3.53;;;;;;;;;;5049518;28;20500;-74
2022/07/05 00:32:58;;;;;;;4.40;3.90;;;;;;;;;;5049079;28;20504;-75
2022/07/05 00:35:25;;;;;;;4.25;3.30;;;;;;;;;;5047695;28;20429;-73
2022/07/05 00:37:52;;;;;;;3.83;3.53;;;;;;;;;;5048515;28;20417;-73
2022/07/05 00:40:21;;;;;;;6.13;4.07;;;;;;;;;;5048961;28;20421;-73
2022/07/05 00:42:48;;;;;;;6.30;3.50;;;;;;;;;;5062010;28;20397;-72
2022/07/05 00:45:15;;;;;;;4.10;3.33;;;;;;;;;;5070755;28;20485;-73
2022/07/05 00:47:42;;;;;;;4.88;3.90;;;;;;;;;;5073430;28;20401;-72
2022/07/05 00:50:09;;;;;;;5.20;3.73;;;;;;;;;;5072018;28;20707;-73
2022/07/05 00:52:37;;;;;;;4.10;3.50;;;;;;;;;;5073336;28;20413;-74
2022/07/05 00:55:04;;;;;;;3.50;3.20;;;;;;;;;;5072424;28;20476;-72
2022/07/05 00:57:34;;;;;;;3.50;3.20;;;;;;;;;;5073158;28;20409;-72
2022/07/05 01:00:01;;;;;;;3.45;3.25;;;;;;;;;;5070237;28;20405;-74
2022/07/05 01:02:28;;;;;;;3.80;3.45;;;;;;;;;;5049088;28;20507;-74
2022/07/05 01:04:55;;;;;;;3.30;3.00;;;;;;;;;;5047939;28;20455;-74
2022/07/05 01:07:23;;;;;;;3.53;3.22;;;;;;;;;;5048486;28;20909;-74
2022/07/05 01:09:50;;;;;;;4.13;3.45;;;;;;;;;;5050426;28;20471;-74
2022/07/05 01:12:18;;;;;;;4.00;3.60;;;;;;;;;;5052634;28;20417;-74
2022/07/05 01:14:47;;;;;;;4.10;3.67;;;;;;;;;;5051403;28;20928;-73
2022/07/05 01:17:14;;;;;;;4.33;3.50;;;;;;;;;;5051415;28;20560;-74
2022/07/05 01:19:41;;;;;;;3.50;3.20;;;;;;;;;;5052482;28;20423;-73
2022/07/05 01:22:12;;;;;;;3.60;3.00;;;;;;;;;;5051747;28;20428;-74
2022/07/05 01:24:41;;;;;;;4.40;3.30;;;;;;;;;;5051383;28;21084;-74
2022/07/05 01:27:08;;;;;;;3.85;2.92;;;;;;;;;;5052789;28;20428;-74
2022/07/05 01:29:35;;;;;;;3.22;2.90;;;;;;;;;;5050532;28;20429;-75
2022/07/05 01:32:02;;;;;;;4.15;3.10;;;;;;;;;;5051362;28;20421;-74
2022/07/05 01:34:30;;;;;;;3.00;2.80;;;;;;;;;;5052197;28;20420;-73
2022/07/05 01:36:57;;;;;;;4.38;3.30;;;;;;;;;;5054421;28;20428;-73
2022/07/05 01:39:24;;;;;;;4.80;3.60;;;;;;;;;;5067947;28;20493;-73
2022/07/05 01:41:52;;;;;;;3.70;3.40;;;;;;;;;;5074553;28;20421;-73
2022/07/05 01:44:19;;;;;;;4.20;3.20;;;;;;;;;;5067314;28;20416;-74
2022/07/05 01:46:46;;;;;;;3.80;3.40;;;;;;;;;;5053584;28;20804;-74
2022/07/05 01:49:15;;;;;;;3.63;3.30;;;;;;;;;;5050720;28;20795;-74
2022/07/05 01:51:46;;;;;;;3.80;3.40;;;;;;;;;;5048910;28;20444;-76
2022/07/05 01:54:13;;;;;;;3.40;3.10;;;;;;;;;;5052198;28;20487;-73
2022/07/05 01:56:40;;;;;;;3.40;3.10;;;;;;;;;;5054750;28;20502;-74
2022/07/05 01:59:09;;;;;;;3.67;3.17;;;;;;;;;;5053080;28;20418;-75
2022/07/05 02:01:37;;;;;;;3.40;3.10;;;;;;;;;;5051700;28;20425;-74
2022/07/05 02:04:05;;;;;;;3.53;3.23;;;;;;;;;;5052627;28;21000;-75
2022/07/05 02:06:33;;;;;;;4.40;3.05;;;;;;;;;;5052430;28;20421;-73
2022/07/05 02:09:00;;;;;;;3.45;3.15;;;;;;;;;;5061288;22;20441;-70
2022/07/05 02:11:27;;;;;;;4.05;3.20;;;;;;;;;;5044369;28;20872;-71
2022/07/05 02:13:54;;;;;;;3.22;2.92;;;;;;;;;;5046704;28;20985;-71
2022/07/05 02:16:25;;;;;;;3.83;3.33;;;;;;;;;;5046851;28;20417;-71
2022/07/05 02:18:52;;;;;;;4.15;3.38;;;;;;;;;;5046126;28;20880;-71
2022/07/05 02:21:19;;;;;;;3.55;3.20;;;;;;;;;;5044193;28;20429;-71
2022/07/05 02:23:46;;;;;;;3.10;2.90;;;;;;;;;;5045866;28;20480;-71
2022/07/05 02:26:13;;;;;;;3.38;3.08;;;;;;;;;;5045588;28;20429;-71
2022/07/05 02:28:40;;;;;;;3.20;2.90;;;;;;;;;;5045313;28;20873;-71
2022/07/05 02:31:08;;;;;;;3.45;3.20;;;;;;;;;;5043789;28;20893;-71
2022/07/05 02:33:36;;;;;;;3.45;3.15;;;;;;;;;;5045251;28;20687;-70
2022/07/05 02:36:08;;;;;;;4.38;3.00;;;;;;;;;;5045326;28;20418;-70
2022/07/05 02:38:35;;;;;;;3.43;3.13;;;;;;;;;;5045739;28;20528;-71
2022/07/05 02:41:02;;;;;;;3.78;3.20;;;;;;;;;;5043713;28;20447;-70
2022/07/05 02:43:29;;;;;;;5.00;3.10;;;;;;;;;;5044576;28;20440;-70
2022/07/05 02:45:56;;;;;;;2.87;2.67;;;;;;;;;;5045726;28;20436;-70
2022/07/05 02:48:23;;;;;;;4.35;3.30;;;;;;;;;;5045466;28;20417;-72
2022/07/05 02:50:51;;;;;;;8.40;3.60;;;;;;;;;;5044087;28;20429;-71
2022/07/05 02:53:19;;;;;;;3.42;2.95;;;;;;;;;;5044092;28;20456;-70
2022/07/05 02:55:46;;;;;;;3.38;3.00;;;;;;;;;;5045554;28;20414;-70
2022/07/05 02:58:13;;;;;;;3.55;3.20;;;;;;;;;;5045064;28;20523;-70
2022/07/05 03:00:40;;;;;;;4.55;3.10;;;;;;;;;;5042999;28;20443;-73
2022/07/05 03:03:07;;;;;;;3.70;3.30;;;;;;;;;;5043073;28;20444;-72
2022/07/05 03:05:34;;;;;;;3.60;3.30;;;;;;;;;;5043578;28;20865;-70
2022/07/05 03:08:02;;;;;;;4.07;3.20;;;;;;;;;;5044679;28;20953;-72
2022/07/05 03:10:29;;;;;;;4.60;3.30;;;;;;;;;;5044463;28;20432;-72
2022/07/05 03:12:57;;;;;;;3.70;3.00;;;;;;;;;;5043838;28;20915;-72
2022/07/05 03:15:24;;;;;;;4.25;3.40;;;;;;;;;;5043763;28;20507;-72
2022/07/05 03:17:51;;;;;;;3.88;3.10;;;;;;;;;;5044223;28;20418;-72
2022/07/05 03:20:18;;;;;;;3.47;3.00;;;;;;;;;;5043787;28;20491;-72
2022/07/05 03:22:45;;;;;;;2.90;2.70;;;;;;;;;;5042893;28;20420;-72
2022/07/05 03:25:13;;;;;;;3.70;3.03;;;;;;;;;;5044598;28;20424;-72
2022/07/05 03:27:40;;;;;;;4.78;3.00;;;;;;;;;;5044514;28;20764;-72
2022/07/05 03:30:09;;;;;;;2.97;2.78;;;;;;;;;;5043788;28;20413;-72
2022/07/05 03:32:36;;;;;;;3.00;2.42;;;;;;;;;;5042962;28;20429;-72
2022/07/05 03:35:03;;;;;;;2.90;2.70;;;;;;;;;;5034571;28;20508;-72
2022/07/05 03:37:30;;;;;;;3.65;3.35;;;;;;;;;;5044678;28;20443;-72
2022/07/05 03:39:57;;;;;;;3.97;3.28;;;;;;;;;;5043335;28;20414;-72
2022/07/05 03:42:26;;;;;;;4.15;3.40;;;;;;;;;;5043926;28;20423;-72
2022/07/05 03:44:53;;;;;;;3.97;3.60;;;;;;;;;;5041458;28;20437;-72
2022/07/05 03:47:21;;;;;;;4.05;2.97;;;;;;;;;;5043358;28;20443;-72
2022/07/05 03:49:48;;;;;;;3.83;3.10;;;;;;;;;;5044364;28;20567;-72
2022/07/05 03:52:15;;;;;;;3.83;3.00;;;;;;;;;;5044697;28;20496;-71
2022/07/05 03:54:44;;;;;;;4.93;3.08;;;;;;;;;;5035912;28;20441;-72
2022/07/05 03:57:11;;;;;;;3.78;3.47;;;;;;;;;;5044332;28;20418;-72
2022/07/05 03:59:40;;;;;;;4.10;3.70;;;;;;;;;;5043128;28;20761;-73
2022/07/05 04:02:07;;;;;;;4.22;3.55;;;;;;;;;;5041803;28;20444;-72
2022/07/05 04:04:34;;;;;;;4.35;3.95;;;;;;;;;;5042423;28;20444;-72
2022/07/05 04:07:01;;;;;;;4.80;4.40;;;;;;;;;;5042407;28;20425;-72
2022/07/05 04:09:28;;;;;;;4.78;4.38;;;;;;;;;;5046397;28;20465;-71
2022/07/05 04:11:55;;;;;;;5.22;4.13;;;;;;;;;;5041236;28;20489;-72
2022/07/05 04:14:23;;;;;;;5.80;4.70;;;;;;;;;;5031261;28;20437;-70
2022/07/05 04:16:51;;;;;;;5.40;4.10;;;;;;;;;;5050426;28;20423;-72
2022/07/05 04:19:18;;;;;;;4.75;4.30;;;;;;;;;;5043847;28;20441;-72
2022/07/05 04:21:45;;;;;;;6.40;4.60;;;;;;;;;;5034183;28;20454;-72
2022/07/05 04:24:12;;;;;;;6.10;4.53;;;;;;;;;;5045708;28;20476;-72
2022/07/05 04:26:39;;;;;;;6.20;4.43;;;;;;;;;;5062761;28;20432;-72
2022/07/05 04:29:07;;;;;;;5.07;4.30;;;;;;;;;;5044766;28;21001;-72
2022/07/05 04:31:34;;;;;;;5.10;4.50;;;;;;;;;;5042324;28;20417;-72
2022/07/05 04:34:03;;;;;;;5.40;4.70;;;;;;;;;;5043994;28;20576;-72
2022/07/05 04:36:30;;;;;;;4.93;4.20;;;;;;;;;;5057108;28;20483;-72
2022/07/05 04:38:57;;;;;;;4.55;4.15;;;;;;;;;;5048565;28;20542;-72
2022/07/05 04:41:24;;;;;;;4.50;4.10;;;;;;;;;;5057799;28;20430;-73
2022/07/05 04:43:51;;;;;;;5.03;3.70;;;;;;;;;;5051039;28;20750;-71
2022/07/05 04:46:18;;;;;;;4.32;3.70;;;;;;;;;;5054038;28;20433;-68
2022/07/05 04:48:45;;;;;;;4.00;3.60;;;;;;;;;;5043628;28;20436;-70
2022/07/05 04:51:14;;;;;;;5.05;3.60;;;;;;;;;;5046455;28;20429;-68
2022/07/05 04:53:41;;;;;;;3.30;3.00;;;;;;;;;;5044309;28;20459;-68
2022/07/05 04:56:08;;;;;;;4.00;3.20;;;;;;;;;;5052941;28;20958;-68
2022/07/05 04:58:36;;;;;;;3.50;3.20;;;;;;;;;;5046423;28;20446;-68
2022/07/05 05:01:03;;;;;;;4.45;3.00;;;;;;;;;;5047815;28;20434;-69
2022/07/05 05:03:30;;;;;;;4.20;3.33;;;;;;;;;;5067316;28;20430;-69
2022/07/05 05:05:57;;;;;;;3.28;2.97;;;;;;;;;;5051788;28;20528;-68
2022/07/05 05:08:26;;;;;;;5.20;4.80;;;;;;;;;;5054704;28;20403;-69
2022/07/05 05:10:53;;;;;;;4.28;3.38;;;;;;;;;;5065317;28;20883;-69
2022/07/05 05:13:20;;;;;;;3.78;3.10;;;;;;;;;;5065195;28;20415;-69
2022/07/05 05:15:47;;;;;;;4.57;2.78;;;;;;;;;;5053652;28;20442;-69
2022/07/05 05:18:15;;;;;;;3.63;2.63;;;;;;;;;;5044649;28;20433;-75
2022/07/05 05:20:42;;;;;;;3.90;3.00;;;;;;;;;;5047023;28;20413;-75
2022/07/05 05:23:09;;;;;;;3.60;2.53;;;;;;;;;;5065116;28;20527;-77
2022/07/05 05:25:37;;;;;;;3.25;2.90;;;;;;;;;;5049546;28;20445;-75
2022/07/05 05:28:05;;;;;;;5.00;2.90;;;;;;;;;;5042144;28;20444;-75
2022/07/05 05:30:32;;;;;;;4.07;2.65;;;;;;;;;;5060930;28;20767;-75
2022/07/05 05:32:59;;;;;;;3.73;3.20;;;;;;;;;;5067405;28;20890;-77
2022/07/05 05:35:26;;;;;;;4.35;3.53;;;;;;;;;;5058479;28;20437;-77
2022/07/05 05:37:54;;;;;;;4.05;3.53;;;;;;;;;;5051068;28;20428;-75
2022/07/05 05:40:22;;;;;;;5.47;3.80;;;;;;;;;;5066503;28;20925;-75
2022/07/05 05:42:51;;;;;;;3.90;3.08;;;;;;;;;;5071438;28;20418;-77
2022/07/05 05:45:18;;;;;;;3.50;3.20;;;;;;;;;;5060800;28;20833;-77
2022/07/05 05:47:49;;;;;;;4.38;3.22;;;;;;;;;;5047366;28;20738;-77
2022/07/05 05:50:20;;;;;;;3.85;3.25;;;;;;;;;;5048711;28;20458;-77
2022/07/05 05:52:47;;;;;;;3.58;2.70;;;;;;;;;;5057280;28;20423;-77
2022/07/05 05:55:14;;;;;;;4.00;3.00;;;;;;;;;;5060702;28;20455;-77
2022/07/05 05:57:41;;;;;;;3.97;2.80;;;;;;;;;;5048468;28;20833;-75
2022/07/05 06:00:10;;;;;;;4.95;2.90;;;;;;;;;;5050016;28;20439;-77
2022/07/05 06:02:37;;;;;;;4.00;2.80;;;;;;;;;;5055640;28;20413;-77
2022/07/05 06:05:05;;;;;;;3.95;2.85;;;;;;;;;;5059893;28;20437;-74
2022/07/05 06:07:32;;;;;;;2.70;2.50;;;;;;;;;;5048886;28;20432;-75
2022/07/05 06:09:59;;;;;;;3.92;2.72;;;;;;;;;;5064376;28;20519;-75
2022/07/05 06:12:26;;;;;;;2.80;2.50;;;;;;;;;;5067923;28;20434;-75
2022/07/05 06:14:53;;;;;;;3.30;3.00;;;;;;;;;;5065189;28;20415;-75
2022/07/05 06:17:22;;;;;;;4.33;2.50;;;;;;;;;;5047939;28;20417;-75
2022/07/05 06:19:49;;;;;;;2.70;2.20;;;;;;;;;;5050088;28;20424;-75
2022/07/05 06:22:16;;;;;;;4.10;2.50;;;;;;;;;;5066767;28;20420;-75
2022/07/05 06:24:43;;;;;;;3.50;2.47;;;;;;;;;;5051942;28;20858;-75
2022/07/05 06:27:10;;;;;;;3.20;2.10;;;;;;;;;;5045702;28;20429;-76
2022/07/05 06:29:37;;;;;;;3.38;2.20;;;;;;;;;;5063829;28;20416;-76
2022/07/05 06:32:05;;;;;;;2.17;1.97;;;;;;;;;;5066121;28;20424;-76
2022/07/05 06:34:33;;;;;;;2.40;2.17;;;;;;;;;;5062905;28;20515;-75
2022/07/05 06:37:00;;;;;;;3.53;2.00;;;;;;;;;;5045183;28;20734;-77
2022/07/05 06:39:27;;;;;;;3.10;2.03;;;;;;;;;;5063712;28;20432;-75
2022/07/05 06:41:54;;;;;;;4.45;2.05;;;;;;;;;;5066305;28;20439;-75
2022/07/05 06:44:21;;;;;;;3.55;2.08;;;;;;;;;;5064919;28;20479;-77
2022/07/05 06:46:48;;;;;;;4.90;2.80;;;;;;;;;;5046262;28;20436;-75
2022/07/05 06:49:15;;;;;;;3.70;2.20;;;;;;;;;;5051219;28;20771;-76
2022/07/05 06:51:44;;;;;;;3.35;1.80;;;;;;;;;;5062220;28;20424;-76
2022/07/05 06:54:11;;;;;;;3.50;2.10;;;;;;;;;;5052186;28;20502;-76
2022/07/05 06:56:38;;;;;;;3.17;2.30;;;;;;;;;;5049409;28;20425;-76
2022/07/05 06:59:05;;;;;;;4.65;3.17;;;;;;;;;;5046835;28;20548;-76
2022/07/05 07:01:32;;;;;;;3.47;3.17;;;;;;;;;;5046489;28;20426;-77
2022/07/05 07:03:59;;;;;;;2.30;2.10;;;;;;;;;;5068652;28;20430;-77
2022/07/05 07:06:27;;;;;;;3.60;2.30;;;;;;;;;;5072315;28;20476;-77
2022/07/05 07:11:40;;;;;;;3.60;2.63;;;;;;;;;;5048377;28;20419;-77
2022/07/05 07:14:07;;;;;;;4.57;2.10;;;;;;;;;;5067426;28;20427;-77
2022/07/05 07:16:34;;;;;;;3.70;1.80;;;;;;;;;;5063759;28;20684;-77
2022/07/05 07:19:01;;;;;;;2.15;1.80;;;;;;;;;;5044895;28;20453;-77
2022/07/05 07:21:28;;;;;;;2.30;1.65;;;;;;;;;;5050169;28;20918;-77
2022/07/05 07:23:57;;;;;;;2.30;1.77;;;;;;;;;;5057762;28;20471;-77
2022/07/05 07:26:24;;;;;;;2.10;1.70;;;;;;;;;;5047340;28;20440;-77
2022/07/05 07:28:51;;;;;;;2.50;2.30;;;;;;;;;;5057382;28;20415;-77
2022/07/05 07:31:18;;;;;;;3.40;2.10;;;;;;;;;;5069164;28;21001;-77
2022/07/05 07:33:45;;;;;;;2.60;2.00;;;;;;;;;;5065870;28;20407;-77
2022/07/05 07:36:12;;;;;;;6.10;2.50;;;;;;;;;;5050479;28;20695;-77
2022/07/05 07:38:40;;;;;;;2.95;2.65;;;;;;;;;;5046744;28;20413;-77
2022/07/05 07:41:09;;;;;;;4.35;2.58;;;;;;;;;;5049480;28;20527;-77
2022/07/05 07:43:36;;;;;;;3.60;3.10;;;;;;;;;;5065262;28;20415;-77
2022/07/05 07:46:03;;;;;;;4.50;3.00;;;;;;;;;;5049680;28;20954;-77
2022/07/05 07:48:30;;;;;;;4.40;2.80;;;;;;;;;;5043077;28;20425;-76
2022/07/05 07:50:57;;;;;;;3.47;2.60;;;;;;;;;;5044502;28;20455;-76
2022/07/05 07:53:24;;;;;;;3.13;2.40;;;;;;;;;;5042412;28;20821;-76
2022/07/05 07:55:51;;;;;;;2.50;2.30;;;;;;;;;;5037206;28;20433;-76
2022/07/05 07:58:20;;;;;;;3.20;2.80;;;;;;;;;;5044857;28;20424;-76
2022/07/05 08:00:47;;;;;;;2.42;2.22;;;;;;;;;;5064522;28;20422;-76
2022/07/05 08:03:14;;;;;;;3.40;2.60;;;;;;;;;;5065242;28;20441;-77
2022/07/05 08:05:41;;;;;;;4.57;2.30;;;;;;;;;;5054743;28;20438;-77
2022/07/05 08:08:08;;;;;;;3.22;2.30;;;;;;;;;;5045579;28;20899;-76
2022/07/05 08:10:35;;;;;;;5.22;2.28;;;;;;;;;;5037939;28;20424;-77
2022/07/05 08:13:04;;;;;;;3.40;2.10;;;;;;;;;;5064001;28;20497;-77
2022/07/05 08:15:32;;;;;;;2.53;2.03;;;;;;;;;;5049448;28;20781;-77
2022/07/05 08:23:29;;;;;;;2.08;1.70;;;;;;;;;;5035351;28;20397;-76
2022/07/05 08:25:56;;;;;;;2.10;1.60;;;;;;;;;;5058627;28;20419;-76
2022/07/05 08:28:24;;;;;;;1.87;1.67;;;;;;;;;;5061691;28;20424;-76
2022/07/05 08:30:52;;;;;;;2.50;2.00;;;;;;;;;;5047446;28;20437;-77
2022/07/05 08:33:19;;;;;;;2.05;1.50;;;;;;;;;;5051619;28;20804;-77
2022/07/05 08:35:46;;;;;;;1.95;1.70;;;;;;;;;;5058868;28;20432;-76
2022/07/05 08:38:13;;;;;;;2.25;1.45;;;;;;;;;;5063380;28;20519;-77
2022/07/05 08:40:43;;;;;;;2.03;1.50;;;;;;;;;;5040396;28;20449;-77
2022/07/05 08:43:11;;;;;;;1.90;1.33;;;;;;;;;;5052866;28;20415;-76
2022/07/05 08:45:38;;;;;;;3.58;1.40;;;;;;;;;;5063878;28;20515;-76
2022/07/05 08:48:07;;;;;;;3.08;1.65;;;;;;;;;;5053848;28;20846;-77
2022/07/05 08:50:35;;;;;;;1.90;1.40;;;;;;;;;;5048419;28;20433;-76
2022/07/05 08:53:02;;;;;;;3.30;1.70;;;;;;;;;;5049297;28;20892;-76
2022/07/05 08:55:29;;;;;;;2.08;1.50;;;;;;;;;;5046708;28;20419;-76
2022/07/05 08:57:56;;;;;;;3.10;1.60;;;;;;;;;;5063838;28;20932;-76
2022/07/05 09:00:24;;;;;;;2.05;1.38;;;;;;;;;;5058784;28;20439;-76
2022/07/05 09:02:51;;;;;;;2.10;1.90;;;;;;;;;;5043974;28;20421;-76
2022/07/05 09:05:21;;;;;;;1.50;1.40;;;;;;;;;;5046107;28;20428;-76
2022/07/05 09:07:53;;;;;;;2.20;1.38;;;;;;;;;;5064240;28;20611;-76
2022/07/05 09:10:21;;;;;;;1.58;1.27;;;;;;;;;;5061716;28;20803;-75
2022/07/05 09:12:48;;;;;;;3.10;1.40;;;;;;;;;;5039339;28;20436;-77
2022/07/05 09:15:15;;;;;;;2.53;1.60;;;;;;;;;;5041374;28;20417;-77
2022/07/05 09:17:45;;;;;;;2.10;1.50;;;;;;;;;;5037319;28;20431;-75
2022/07/05 09:20:13;;;;;;;2.72;2.00;;;;;;;;;;5038254;28;20434;-75
2022/07/05 09:22:49;;;;;;;2.50;1.50;;;;;;;;;;5067914;28;20550;-75
2022/07/05 09:25:17;;;;;;;2.88;1.50;;;;;;;;;;5054263;28;20767;-75
2022/07/05 09:27:55;;;;;;;2.08;1.80;;;;;;;;;;5049691;28;20923;-75
2022/07/05 09:30:26;;;;;;;3.05;2.35;;;;;;;;;;5049107;28;20421;-75
2022/07/05 09:33:03;;;;;;;2.60;1.90;;;;;;;;;;5046782;28;20489;-77
2022/07/05 09:35:30;;;;;;;2.00;1.40;;;;;;;;;;5059052;28;20415;-76
2022/07/05 09:37:59;;;;;;;3.08;1.40;;;;;;;;;;5066870;28;20412;-76
2022/07/05 09:40:26;;;;;;;1.40;1.23;;;;;;;;;;5068048;28;20415;-76
2022/07/05 09:42:53;;;;;;;1.65;1.50;;;;;;;;;;5051769;28;20443;-76
2022/07/05 09:45:24;;;;;;;2.92;1.70;;;;;;;;;;5047851;28;20908;-75
2022/07/05 09:47:51;;;;;;;2.53;1.63;;;;;;;;;;5052181;28;20518;-77
2022/07/05 09:50:33;;;;;;;3.17;1.60;;;;;;;;;;5047568;28;20436;-75
2022/07/05 09:53:01;;;;;;;2.42;1.88;;;;;;;;;;5047110;28;20429;-75
2022/07/05 09:55:29;;;;;;;4.00;1.80;;;;;;;;;;5063022;28;20434;-75
2022/07/05 09:57:56;;;;;;;2.10;1.50;;;;;;;;;;5051909;28;20452;-75
2022/07/05 10:00:23;;;;;;;1.50;1.40;;;;;;;;;;5047180;28;20447;-75
2022/07/05 10:02:51;;;;;;;2.35;1.50;;;;;;;;;;5050223;28;20928;-75
2022/07/05 10:05:19;;;;;;;3.60;1.70;;;;;;;;;;5047320;28;20447;-74
2022/07/05 10:07:48;;;;;;;3.70;1.80;;;;;;;;;;5047459;28;20425;-74
2022/07/05 10:10:18;;;;;;;4.00;1.60;;;;;;;;;;5044833;28;20433;-75
2022/07/05 10:12:46;;;;;;;2.50;1.55;;;;;;;;;;5047346;28;20442;-76
2022/07/05 10:15:13;;;;;;;2.10;1.50;;;;;;;;;;5050282;28;20432;-77
2022/07/05 10:17:42;;;;;;;1.50;1.40;;;;;;;;;;5049091;28;20421;-76
2022/07/05 10:20:12;;;;;;;1.67;1.43;;;;;;;;;;5066559;28;20422;-76
2022/07/05 10:22:40;;;;;;;2.05;1.42;;;;;;;;;;5066656;28;20498;-76
2022/07/05 10:25:07;;;;;;;2.60;1.40;;;;;;;;;;5050557;28;20440;-76
2022/07/05 10:27:37;;;;;;;2.83;1.50;;;;;;;;;;5047732;28;20904;-76
2022/07/05 10:30:05;;;;;;;1.90;1.70;;;;;;;;;;5064950;28;20511;-75
2022/07/05 10:32:32;;;;;;;3.10;1.30;;;;;;;;;;5061512;28;20419;-76
2022/07/05 10:35:00;;;;;;;2.17;1.60;;;;;;;;;;5045811;28;20596;-76
2022/07/05 10:37:28;;;;;;;1.70;1.60;;;;;;;;;;5048188;28;20413;-76
2022/07/05 10:39:56;;;;;;;1.60;1.30;;;;;;;;;;5066152;28;20434;-76
2022/07/05 10:42:23;;;;;;;2.17;1.42;;;;;;;;;;5048689;28;20444;-74
2022/07/05 10:44:52;;;;;;;2.20;1.30;;;;;;;;;;5045932;28;20427;-74
2022/07/05 10:47:19;;;;;;;4.80;1.70;;;;;;;;;;5063624;28;20435;-74
2022/07/05 10:50:00;;;;;;;2.57;1.40;;;;;;;;;;5058764;28;20917;-74
2022/07/05 10:52:28;;;;;;;2.53;1.60;;;;;;;;;;5054140;28;20411;-76
2022/07/05 10:55:13;;;;;;;2.90;1.70;;;;;;;;;;5066271;28;20506;-75
2022/07/05 10:57:41;;;;;;;1.70;1.33;;;;;;;;;;5066590;28;20417;-76
2022/07/05 11:00:10;;;;;;;2.60;1.70;;;;;;;;;;5046783;28;20446;-75
2022/07/05 11:02:37;;;;;;;2.45;2.25;;;;;;;;;;5054454;28;20490;-76
2022/07/05 11:05:05;;;;;;;3.23;1.80;;;;;;;;;;5054802;28;20524;-76
2022/07/05 11:07:47;;;;;;;2.85;1.45;;;;;;;;;;5046508;28;20447;-75
2022/07/05 11:10:14;;;;;;;3.38;1.30;;;;;;;;;;5054151;28;20434;-76
2022/07/05 11:12:41;;;;;;;2.40;1.60;;;;;;;;;;5065754;28;20570;-75
2022/07/05 11:15:11;;;;;;;2.20;1.35;;;;;;;;;;5065543;28;20438;-76
2022/07/05 11:17:38;;;;;;;2.00;1.27;;;;;;;;;;5044681;28;20950;-75
2022/07/05 11:20:07;;;;;;;3.20;1.58;;;;;;;;;;5050644;28;20438;-75
2022/07/05 11:22:34;;;;;;;2.13;1.23;;;;;;;;;;5064207;28;20443;-75
2022/07/05 11:25:02;;;;;;;3.15;1.30;;;;;;;;;;5054398;28;20446;-76
2022/07/05 11:27:29;;;;;;;1.30;1.20;;;;;;;;;;5053127;28;20881;-75
2022/07/05 11:29:56;;;;;;;1.40;1.00;;;;;;;;;;5043850;28;20429;-75
2022/07/05 11:32:36;;;;;;;1.50;1.10;;;;;;;;;;5057511;28;20491;-73
2022/07/05 11:35:13;;;;;;;2.55;1.30;;;;;;;;;;5058136;28;20874;-73
2022/07/05 11:37:58;;;;;;;4.10;1.20;;;;;;;;;;5046565;28;20616;-76
2022/07/05 11:40:29;;;;;;;2.17;1.27;;;;;;;;;;5063915;28;20527;-77
2022/07/05 11:42:56;;;;;;;1.90;1.30;;;;;;;;;;5058744;28;20417;-76
2022/07/05 11:45:24;;;;;;;3.28;1.20;;;;;;;;;;5047907;28;20445;-76
2022/07/05 11:47:55;;;;;;;1.63;1.13;;;;;;;;;;5054820;28;20434;-77
2022/07/05 11:50:26;;;;;;;1.20;1.10;;;;;;;;;;5056862;28;20928;-76
2022/07/05 11:52:53;;;;;;;2.70;1.27;;;;;;;;;;5051640;28;20460;-74
2022/07/05 11:55:21;;;;;;;2.35;0.90;;;;;;;;;;5055143;28;20464;-74
2022/07/05 11:57:52;;;;;;;2.10;0.90;;;;;;;;;;5043904;28;20417;-74
2022/07/05 12:00:29;;;;;;;1.50;0.90;;;;;;;;;;5058653;28;20678;-74
2022/07/05 12:02:57;;;;;;;1.20;1.00;;;;;;;;;;5063580;28;20423;-74
2022/07/05 12:05:24;;;;;;;1.73;1.00;;;;;;;;;;5048144;28;20441;-74
2022/07/05 12:07:52;;;;;;;1.40;0.80;;;;;;;;;;5057306;28;20525;-75
2022/07/05 12:13:05;;;;;;;1.30;0.90;;;;;;;;;;5065938;28;20982;-75
2022/07/05 12:15:32;;;;;;;1.33;1.00;;;;;;;;;;5045372;28;20475;-75
2022/07/05 12:18:03;;;;;;;1.83;0.88;;;;;;;;;;5046611;28;20432;-73
2022/07/05 12:20:30;;;;;;;1.33;1.20;;;;;;;;;;5063881;28;20478;-77
2022/07/05 12:22:58;;;;;;;1.10;1.00;;;;;;;;;;5064306;28;20446;-77
2022/07/05 12:25:26;;;;;;;1.83;0.80;;;;;;;;;;5043258;28;20448;-75
2022/07/05 12:27:54;;;;;;;1.30;1.10;;;;;;;;;;5043131;28;20441;-74
2022/07/05 12:30:22;;;;;;;1.05;0.73;;;;;;;;;;5046325;28;20879;-75
2022/07/05 12:32:56;;;;;;;1.50;0.60;;;;;;;;;;5060094;28;20411;-76
2022/07/05 12:35:39;;;;;;;3.17;0.70;;;;;;;;;;5063939;28;20427;-74
2022/07/05 12:38:07;;;;;;;1.60;0.70;;;;;;;;;;5058856;28;20456;-75
2022/07/05 12:40:35;;;;;;;1.80;0.90;;;;;;;;;;5042987;28;20428;-76
2022/07/05 12:43:07;;;;;;;1.40;0.90;;;;;;;;;;5039108;28;20460;-76
2022/07/05 12:45:34;;;;;;;1.30;0.80;;;;;;;;;;5065340;28;20419;-76
2022/07/05 12:48:02;;;;;;;2.33;1.10;;;;;;;;;;5060045;28;20539;-76
2022/07/05 12:50:30;;;;;;;1.38;0.73;;;;;;;;;;5051957;28;20413;-76
2022/07/05 12:58:01;;;;;;;1.77;0.80;;;;;;;;;;5049537;28;20883;-76
2022/07/05 12:58:34;;;;;;;1.80;0.65;;;;;;;;;;5054507;28;20439;-76
2022/07/05 13:01:01;;;;;;;1.20;0.70;;;;;;;;;;5043556;28;20440;-76
2022/07/05 13:03:28;;;;;;;1.77;0.70;;;;;;;;;;5058788;28;20419;-74
2022/07/05 13:06:03;;;;;;;2.28;0.90;;;;;;;;;;5064642;28;20525;-75
2022/07/05 13:08:31;;;;;;;1.55;0.80;;;;;;;;;;5059290;28;20517;-74
2022/07/05 13:10:58;;;;;;;2.10;0.70;;;;;;;;;;5052422;28;20436;-77
2022/07/05 13:13:25;;;;;;;2.90;0.90;;;;;;;;;;5063194;28;20511;-74
2022/07/05 13:15:53;;;;;;;1.60;1.00;;;;;;;;;;5067493;28;20767;-75
2022/07/05 13:18:27;;;;;;;1.15;0.70;;;;;;;;;;5053867;28;20423;-75
2022/07/05 13:20:54;;;;;;;1.42;0.80;;;;;;;;;;5059227;28;20516;-74
2022/07/05 13:23:21;;;;;;;1.00;0.70;;;;;;;;;;5048428;28;20430;-74
2022/07/05 13:25:50;;;;;;;1.80;0.90;;;;;;;;;;5053172;28;20415;-73
2022/07/05 13:28:17;;;;;;;1.48;0.90;;;;;;;;;;5066766;28;20473;-73
2022/07/05 13:30:44;;;;;;;0.90;0.60;;;;;;;;;;5059365;28;20432;-74
2022/07/05 13:33:11;;;;;;;1.33;0.60;;;;;;;;;;5053727;28;20507;-74
2022/07/05 13:35:38;;;;;;;0.80;0.60;;;;;;;;;;5053877;28;20482;-74
2022/07/05 13:38:05;;;;;;;1.40;0.60;;;;;;;;;;5059831;28;20610;-75
2022/07/05 13:40:32;;;;;;;1.35;0.70;;;;;;;;;;5066388;28;20419;-74
2022/07/05 13:43:01;;;;;;;0.60;0.60;;;;;;;;;;5067200;28;20498;-75
2022/07/05 13:45:29;;;;;;;1.30;0.80;;;;;;;;;;5066613;28;20422;-75
2022/07/05 13:47:56;;;;;;;1.83;1.00;;;;;;;;;;5066566;28;20420;-76
2022/07/05 13:50:32;;;;;;;2.10;1.00;;;;;;;;;;5051695;28;20440;-75
2022/07/05 13:52:59;;;;;;;2.40;1.20;;;;;;;;;;5048472;28;20446;-75
2022/07/05 13:55:26;;;;;;;1.53;1.00;;;;;;;;;;5065709;28;20866;-75
2022/07/05 13:57:53;;;;;;;2.60;1.00;;;;;;;;;;5060633;28;20463;-74
2022/07/05 14:00:22;;;;;;;2.40;0.90;;;;;;;;;;5048072;28;20443;-76
2022/07/05 14:02:49;;;;;;;2.00;1.10;;;;;;;;;;5057754;28;20433;-75
2022/07/05 14:05:16;;;;;;;2.20;1.70;;;;;;;;;;5061088;28;20451;-73
2022/07/05 14:07:44;;;;;;;1.60;1.00;;;;;;;;;;5039292;28;20452;-73
2022/07/05 14:10:11;;;;;;;2.10;1.10;;;;;;;;;;5061503;22;20810;-72
2022/07/05 14:12:38;;;;;;;1.35;0.90;;;;;;;;;;5050742;28;20424;-73
2022/07/05 14:15:05;;;;;;;2.00;0.93;;;;;;;;;;5055217;28;20419;-73
2022/07/05 14:17:34;;;;;;;1.52;1.00;;;;;;;;;;5060114;28;20421;-74
2022/07/05 14:20:01;;;;;;;1.10;0.80;;;;;;;;;;5066393;28;20433;-75
2022/07/05 14:22:28;;;;;;;1.50;0.77;;;;;;;;;;5055383;28;20421;-73
2022/07/05 14:24:55;;;;;;;1.60;1.10;;;;;;;;;;5055104;28;20784;-74
2022/07/05 14:27:22;;;;;;;1.60;0.90;;;;;;;;;;5063311;28;20423;-74
2022/07/05 14:29:49;;;;;;;1.55;1.02;;;;;;;;;;5050787;28;20432;-73
2022/07/05 14:32:17;;;;;;;1.07;0.77;;;;;;;;;;5062324;28;20807;-72
2022/07/05 14:34:45;;;;;;;1.77;1.00;;;;;;;;;;5061262;28;20820;-74
2022/07/05 14:37:12;;;;;;;1.80;0.90;;;;;;;;;;5049977;28;20413;-73
2022/07/05 14:39:39;;;;;;;1.83;1.10;;;;;;;;;;5049656;28;20421;-73
2022/07/05 14:42:06;;;;;;;1.42;0.90;;;;;;;;;;5049386;28;20734;-74
2022/07/05 14:44:33;;;;;;;1.65;1.00;;;;;;;;;;5050024;28;20451;-74
2022/07/05 14:47:00;;;;;;;2.65;1.30;;;;;;;;;;5050048;28;20940;-72
2022/07/05 14:49:28;;;;;;;1.55;1.10;;;;;;;;;;5048353;28;20421;-73
2022/07/05 14:51:56;;;;;;;2.10;1.30;;;;;;;;;;5052452;28;20440;-74
2022/07/05 14:54:23;;;;;;;2.80;1.10;;;;;;;;;;5049742;28;20424;-74
2022/07/05 14:56:50;;;;;;;1.10;0.82;;;;;;;;;;5051115;28;20811;-73
2022/07/05 14:59:17;;;;;;;1.50;0.88;;;;;;;;;;5044818;28;20425;-74
2022/07/05 15:01:44;;;;;;;1.80;0.90;;;;;;;;;;5052191;28;20934;-72